createdAt,value
2018-11-29T00:00:44.521Z,2.44
2018-11-29T00:01:44.486Z,2.45
2018-11-29T00:02:44.453Z,2.36
2018-11-29T00:03:44.426Z,2.37
2018-11-29T00:04:44.385Z,2.45
2018-11-29T00:05:44.352Z,2.36
2018-11-29T00:06:44.321Z,2.37
2018-11-29T00:07:44.283Z,2.37
2018-11-29T00:08:44.250Z,2.36
2018-11-29T00:09:44.219Z,2.38
2018-11-29T00:10:44.183Z,2.36
2018-11-29T00:11:44.148Z,2.41
2018-11-29T00:12:44.113Z,2.40
2018-11-29T00:13:44.083Z,2.36
2018-11-29T00:14:44.045Z,2.41
2018-11-29T00:15:44.012Z,2.40
2018-11-29T00:16:43.978Z,2.44
2018-11-29T00:17:43.944Z,2.47
2018-11-29T00:18:43.911Z,2.43
2018-11-29T00:19:43.877Z,2.43
2018-11-29T00:20:43.849Z,2.41
2018-11-29T00:21:43.812Z,2.29
2018-11-29T00:22:43.775Z,2.38
2018-11-29T00:23:43.739Z,2.29
2018-11-29T00:24:43.706Z,2.32
2018-11-29T00:25:43.672Z,2.27
2018-11-29T00:26:43.639Z,2.23
2018-11-29T00:27:43.604Z,2.30
2018-11-29T00:28:43.579Z,2.29
2018-11-29T00:29:43.538Z,2.33
2018-11-29T00:30:43.505Z,2.22
2018-11-29T00:31:43.469Z,2.15
2018-11-29T00:32:43.433Z,2.15
2018-11-29T00:33:43.399Z,2.15
2018-11-29T00:34:43.365Z,2.11
2018-11-29T00:35:43.331Z,2.18
2018-11-29T00:36:43.303Z,2.14
2018-11-29T00:37:43.263Z,2.12
2018-11-29T00:38:43.228Z,2.12
2018-11-29T00:39:43.194Z,2.11
2018-11-29T00:40:43.164Z,2.09
2018-11-29T00:41:43.130Z,2.09
2018-11-29T00:42:43.092Z,2.11
2018-11-29T00:43:43.055Z,2.07
2018-11-29T00:44:43.021Z,2.02
2018-11-29T00:45:42.990Z,2.08
2018-11-29T00:46:42.952Z,2.02
2018-11-29T00:47:42.921Z,2.02
2018-11-29T00:48:42.887Z,1.92
2018-11-29T00:49:42.850Z,1.98
2018-11-29T00:50:42.814Z,1.92
2018-11-29T00:51:42.780Z,1.89
2018-11-29T00:52:42.749Z,1.95
2018-11-29T00:53:42.711Z,1.93
2018-11-29T00:54:42.676Z,1.92
2018-11-29T00:55:42.644Z,1.92
2018-11-29T00:56:42.607Z,2.01
2018-11-29T00:57:42.574Z,1.93
2018-11-29T00:58:42.539Z,2.00
2018-11-29T00:59:42.506Z,1.85
2018-11-29T01:00:42.472Z,2.07
2018-11-29T01:01:42.439Z,2.05
2018-11-29T01:02:42.400Z,1.93
2018-11-29T01:03:42.368Z,1.92
2018-11-29T01:04:42.350Z,1.92
2018-11-29T01:05:42.299Z,2.01
2018-11-29T01:06:42.290Z,1.92
2018-11-29T01:07:42.234Z,2.04
2018-11-29T01:08:42.345Z,1.90
2018-11-29T01:09:42.160Z,2.07
2018-11-29T01:10:42.132Z,1.93
2018-11-29T01:11:42.095Z,1.98
2018-11-29T01:12:42.062Z,2.00
2018-11-29T01:13:42.025Z,2.01
2018-11-29T01:14:41.997Z,1.98
2018-11-29T01:15:41.955Z,1.93
2018-11-29T01:16:41.923Z,1.98
2018-11-29T01:17:41.885Z,1.95
2018-11-29T01:18:41.851Z,1.93
2018-11-29T01:19:41.966Z,2.00
2018-11-29T01:20:41.781Z,2.00
2018-11-29T01:21:41.749Z,2.00
2018-11-29T01:22:41.721Z,2.00
2018-11-29T01:23:41.678Z,2.00
2018-11-29T01:24:41.645Z,2.12
2018-11-29T01:25:41.615Z,2.11
2018-11-29T01:26:41.575Z,2.02
2018-11-29T01:27:41.547Z,2.02
2018-11-29T01:28:41.509Z,2.08
2018-11-29T01:29:41.474Z,2.04
2018-11-29T01:30:41.440Z,2.02
2018-11-29T01:31:41.404Z,2.08
2018-11-29T01:32:41.371Z,2.04
2018-11-29T01:33:41.336Z,1.98
2018-11-29T01:34:41.302Z,2.15
2018-11-29T01:35:41.269Z,2.04
2018-11-29T01:36:41.233Z,2.14
2018-11-29T01:37:41.252Z,2.20
2018-11-29T01:38:41.165Z,2.08
2018-11-29T01:39:41.134Z,2.09
2018-11-29T01:40:41.099Z,2.11
2018-11-29T01:41:41.063Z,2.12
2018-11-29T01:42:41.031Z,2.09
2018-11-29T01:43:40.997Z,2.08
2018-11-29T01:44:40.962Z,2.08
2018-11-29T01:45:40.925Z,2.08
2018-11-29T01:46:40.891Z,2.09
2018-11-29T01:47:40.859Z,2.07
2018-11-29T01:48:40.977Z,2.15
2018-11-29T01:49:40.791Z,2.18
2018-11-29T01:50:40.755Z,2.09
2018-11-29T01:51:40.720Z,2.19
2018-11-29T01:52:40.686Z,2.12
2018-11-29T01:53:40.652Z,2.19
2018-11-29T01:54:40.619Z,2.19
2018-11-29T01:55:40.586Z,2.15
2018-11-29T01:56:40.550Z,2.14
2018-11-29T01:57:40.517Z,2.14
2018-11-29T01:58:40.482Z,2.18
2018-11-29T01:59:40.447Z,2.19
2018-11-29T02:00:40.415Z,2.18
2018-11-29T02:01:40.382Z,2.15
2018-11-29T02:02:40.345Z,2.18
2018-11-29T02:03:40.312Z,2.08
2018-11-29T02:04:40.277Z,2.15
2018-11-29T02:05:40.245Z,2.18
2018-11-29T02:06:40.210Z,2.23
2018-11-29T02:07:40.174Z,2.12
2018-11-29T02:08:40.142Z,2.15
2018-11-29T02:09:40.107Z,2.12
2018-11-29T02:10:40.075Z,2.07
2018-11-29T02:11:40.040Z,2.14
2018-11-29T02:12:40.005Z,2.19
2018-11-29T02:13:39.982Z,2.19
2018-11-29T02:14:39.937Z,2.22
2018-11-29T02:15:39.902Z,2.14
2018-11-29T02:16:39.876Z,2.18
2018-11-29T02:17:39.834Z,2.14
2018-11-29T02:18:39.800Z,2.18
2018-11-29T02:19:39.767Z,2.19
2018-11-29T02:20:39.735Z,2.15
2018-11-29T02:21:39.700Z,2.14
2018-11-29T02:22:39.669Z,2.18
2018-11-29T02:23:39.631Z,2.09
2018-11-29T02:24:39.597Z,2.23
2018-11-29T02:25:39.564Z,2.19
2018-11-29T02:26:39.530Z,2.14
2018-11-29T02:27:39.495Z,2.22
2018-11-29T02:28:39.460Z,2.20
2018-11-29T02:29:39.426Z,2.18
2018-11-29T02:30:39.392Z,2.19
2018-11-29T02:31:39.361Z,2.15
2018-11-29T02:32:39.325Z,2.15
2018-11-29T02:33:39.292Z,2.19
2018-11-29T02:34:39.255Z,2.20
2018-11-29T02:35:39.224Z,2.20
2018-11-29T02:36:39.195Z,2.23
2018-11-29T02:37:39.156Z,2.29
2018-11-29T02:38:39.121Z,2.23
2018-11-29T02:39:39.086Z,2.23
2018-11-29T02:40:39.053Z,2.27
2018-11-29T02:41:39.021Z,2.30
2018-11-29T02:42:38.983Z,2.32
2018-11-29T02:43:38.955Z,2.36
2018-11-29T02:44:38.922Z,2.37
2018-11-29T02:45:38.885Z,2.40
2018-11-29T02:46:38.852Z,2.37
2018-11-29T02:47:38.815Z,2.41
2018-11-29T02:48:38.825Z,2.37
2018-11-29T02:49:38.746Z,2.40
2018-11-29T02:50:38.718Z,2.38
2018-11-29T02:51:38.685Z,2.40
2018-11-29T02:52:38.647Z,2.38
2018-11-29T02:53:38.612Z,2.43
2018-11-29T02:54:38.576Z,2.37
2018-11-29T02:55:38.550Z,2.38
2018-11-29T02:56:38.511Z,2.40
2018-11-29T02:57:38.478Z,2.41
2018-11-29T02:58:38.443Z,2.43
2018-11-29T02:59:38.408Z,2.41
2018-11-29T03:00:38.374Z,2.43
2018-11-29T03:01:38.343Z,2.43
2018-11-29T03:02:38.306Z,2.50
2018-11-29T03:03:38.274Z,2.45
2018-11-29T03:04:38.239Z,2.48
2018-11-29T03:05:38.207Z,2.47
2018-11-29T03:06:38.172Z,2.41
2018-11-29T03:07:38.136Z,2.40
2018-11-29T03:08:38.105Z,2.44
2018-11-29T03:09:38.070Z,2.41
2018-11-29T03:10:38.043Z,2.44
2018-11-29T03:11:38.005Z,2.44
2018-11-29T03:12:37.973Z,2.45
2018-11-29T03:13:37.966Z,2.40
2018-11-29T03:14:37.906Z,2.38
2018-11-29T03:15:37.867Z,2.38
2018-11-29T03:16:37.835Z,2.41
2018-11-29T03:17:37.800Z,2.37
2018-11-29T03:18:37.794Z,2.37
2018-11-29T03:19:37.737Z,2.33
2018-11-29T03:20:37.700Z,2.29
2018-11-29T03:21:37.665Z,2.43
2018-11-29T03:22:37.630Z,2.33
2018-11-29T03:23:37.597Z,2.40
2018-11-29T03:24:37.566Z,2.37
2018-11-29T03:25:37.527Z,2.32
2018-11-29T03:26:37.494Z,2.32
2018-11-29T03:27:37.465Z,2.36
2018-11-29T03:28:37.426Z,2.40
2018-11-29T03:29:37.396Z,2.33
2018-11-29T03:30:37.372Z,2.32
2018-11-29T03:31:37.332Z,2.32
2018-11-29T03:32:37.291Z,2.33
2018-11-29T03:33:37.408Z,2.38
2018-11-29T03:34:37.222Z,2.32
2018-11-29T03:35:37.187Z,2.38
2018-11-29T03:36:37.154Z,2.37
2018-11-29T03:37:37.120Z,2.33
2018-11-29T03:38:37.095Z,2.41
2018-11-29T03:39:37.202Z,2.30
2018-11-29T03:40:37.017Z,2.45
2018-11-29T03:41:36.983Z,2.44
2018-11-29T03:42:36.948Z,2.38
2018-11-29T03:43:36.915Z,2.45
2018-11-29T03:44:36.880Z,2.40
2018-11-29T03:45:36.847Z,2.44
2018-11-29T03:46:36.812Z,2.38
2018-11-29T03:47:36.782Z,2.44
2018-11-29T03:48:36.746Z,2.45
2018-11-29T03:49:36.711Z,2.43
2018-11-29T03:50:36.676Z,2.45
2018-11-29T03:51:36.643Z,2.47
2018-11-29T03:52:36.614Z,2.50
2018-11-29T03:53:36.574Z,2.47
2018-11-29T03:54:36.545Z,2.48
2018-11-29T03:55:36.508Z,2.51
2018-11-29T03:56:36.473Z,2.59
2018-11-29T03:57:36.438Z,2.56
2018-11-29T03:58:36.414Z,2.47
2018-11-29T03:59:36.371Z,2.58
2018-11-29T04:00:36.339Z,2.58
2018-11-29T04:01:36.304Z,2.66
2018-11-29T04:02:36.271Z,2.62
2018-11-29T04:03:36.236Z,2.61
2018-11-29T04:04:36.205Z,2.59
2018-11-29T04:05:36.169Z,2.58
2018-11-29T04:06:36.134Z,2.50
2018-11-29T04:07:36.104Z,2.50
2018-11-29T04:08:36.070Z,2.50
2018-11-29T04:09:36.036Z,2.58
2018-11-29T04:10:35.998Z,2.63
2018-11-29T04:11:35.965Z,2.47
2018-11-29T04:12:35.932Z,2.45
2018-11-29T04:13:35.899Z,2.51
2018-11-29T04:14:35.874Z,2.50
2018-11-29T04:15:35.831Z,2.45
2018-11-29T04:16:35.798Z,2.45
2018-11-29T04:17:40.548Z,2.38
2018-11-29T04:18:35.740Z,2.36
2018-11-29T04:19:35.695Z,2.33
2018-11-29T04:20:35.660Z,2.38
2018-11-29T04:21:35.626Z,2.36
2018-11-29T04:22:35.597Z,2.30
2018-11-29T04:23:35.558Z,2.29
2018-11-29T04:24:35.528Z,2.32
2018-11-29T04:25:35.494Z,2.26
2018-11-29T04:26:35.455Z,2.23
2018-11-29T04:27:35.425Z,2.23
2018-11-29T04:28:35.387Z,2.33
2018-11-29T04:29:35.355Z,2.26
2018-11-29T04:30:35.320Z,2.18
2018-11-29T04:31:35.285Z,2.22
2018-11-29T04:32:35.552Z,2.15
2018-11-29T04:33:35.216Z,2.19
2018-11-29T04:34:35.186Z,2.19
2018-11-29T04:35:35.148Z,2.19
2018-11-29T04:36:35.116Z,2.22
2018-11-29T04:37:35.083Z,2.18
2018-11-29T04:38:35.045Z,2.22
2018-11-29T04:39:35.017Z,2.12
2018-11-29T04:40:35.021Z,2.11
2018-11-29T04:41:34.941Z,2.18
2018-11-29T04:42:34.909Z,2.15
2018-11-29T04:43:34.878Z,2.12
2018-11-29T04:44:34.837Z,2.15
2018-11-29T04:45:34.805Z,2.15
2018-11-29T04:46:34.769Z,2.18
2018-11-29T04:47:34.741Z,2.09
2018-11-29T04:48:34.704Z,2.18
2018-11-29T04:49:34.665Z,2.18
2018-11-29T04:50:34.630Z,2.08
2018-11-29T04:51:34.608Z,2.18
2018-11-29T04:52:34.564Z,2.14
2018-11-29T04:53:34.531Z,2.14
2018-11-29T04:54:34.498Z,2.12
2018-11-29T04:55:34.609Z,2.15
2018-11-29T04:56:34.424Z,2.18
2018-11-29T04:57:34.390Z,2.11
2018-11-29T04:58:34.356Z,2.20
2018-11-29T04:59:34.318Z,2.14
2018-11-29T05:00:34.285Z,2.14
2018-11-29T05:01:34.260Z,2.12
2018-11-29T05:02:34.214Z,2.19
2018-11-29T05:03:34.180Z,2.12
2018-11-29T05:04:34.145Z,2.19
2018-11-29T05:05:34.122Z,2.11
2018-11-29T05:06:34.076Z,2.12
2018-11-29T05:07:34.043Z,2.19
2018-11-29T05:08:34.009Z,2.15
2018-11-29T05:09:33.972Z,2.18
2018-11-29T05:10:33.937Z,2.14
2018-11-29T05:11:33.904Z,2.11
2018-11-29T05:12:33.869Z,2.18
2018-11-29T05:13:33.835Z,2.19
2018-11-29T05:14:33.798Z,2.15
2018-11-29T05:15:33.766Z,2.09
2018-11-29T05:16:33.731Z,2.15
2018-11-29T05:17:33.694Z,2.12
2018-11-29T05:18:33.659Z,2.15
2018-11-29T05:19:33.625Z,2.23
2018-11-29T05:20:33.590Z,2.18
2018-11-29T05:21:33.561Z,2.20
2018-11-29T05:22:33.526Z,2.18
2018-11-29T05:23:33.486Z,2.12
2018-11-29T05:24:33.462Z,2.14
2018-11-29T05:25:33.417Z,2.18
2018-11-29T05:26:33.383Z,2.15
2018-11-29T05:27:33.349Z,2.20
2018-11-29T05:28:33.314Z,2.19
2018-11-29T05:29:33.279Z,2.15
2018-11-29T05:30:33.246Z,2.25
2018-11-29T05:31:33.209Z,2.19
2018-11-29T05:32:33.177Z,2.15
2018-11-29T05:33:33.143Z,2.19
2018-11-29T05:34:33.105Z,2.12
2018-11-29T05:35:33.099Z,2.18
2018-11-29T05:36:33.035Z,2.27
2018-11-29T05:37:33.003Z,2.22
2018-11-29T05:38:32.968Z,2.25
2018-11-29T05:39:32.935Z,2.32
2018-11-29T05:40:32.900Z,2.37
2018-11-29T05:41:32.864Z,2.29
2018-11-29T05:42:32.828Z,2.36
2018-11-29T05:43:32.796Z,2.27
2018-11-29T05:44:32.762Z,2.23
2018-11-29T05:45:32.727Z,2.23
2018-11-29T05:46:32.693Z,2.27
2018-11-29T05:47:32.656Z,2.32
2018-11-29T05:48:32.624Z,2.32
2018-11-29T05:49:32.589Z,2.23
2018-11-29T05:50:32.561Z,2.22
2018-11-29T05:51:32.521Z,2.22
2018-11-29T05:52:32.484Z,2.22
2018-11-29T05:53:32.460Z,2.18
2018-11-29T05:54:32.420Z,2.25
2018-11-29T05:55:32.383Z,2.27
2018-11-29T05:56:32.350Z,2.33
2018-11-29T05:57:32.315Z,2.32
2018-11-29T05:58:32.280Z,2.32
2018-11-29T05:59:32.245Z,2.25
2018-11-29T06:00:32.210Z,2.41
2018-11-29T06:01:32.175Z,2.32
2018-11-29T06:02:32.140Z,2.32
2018-11-29T06:03:32.108Z,2.32
2018-11-29T06:04:32.074Z,2.29
2018-11-29T06:05:32.043Z,2.36
2018-11-29T06:06:32.009Z,2.32
2018-11-29T06:07:31.969Z,2.33
2018-11-29T06:08:31.936Z,2.30
2018-11-29T06:09:31.907Z,2.32
2018-11-29T06:10:31.867Z,2.32
2018-11-29T06:11:31.831Z,2.26
2018-11-29T06:12:31.800Z,2.25
2018-11-29T06:13:31.766Z,2.32
2018-11-29T06:14:31.732Z,2.32
2018-11-29T06:15:31.694Z,2.37
2018-11-29T06:16:31.662Z,2.32
2018-11-29T06:17:31.628Z,2.32
2018-11-29T06:18:31.591Z,2.41
2018-11-29T06:19:31.597Z,2.41
2018-11-29T06:20:31.529Z,2.36
2018-11-29T06:21:31.490Z,2.40
2018-11-29T06:22:31.456Z,2.41
2018-11-29T06:23:31.419Z,2.40
2018-11-29T06:24:31.387Z,2.44
2018-11-29T06:25:31.353Z,2.40
2018-11-29T06:26:31.316Z,2.43
2018-11-29T06:27:31.287Z,2.41
2018-11-29T06:28:31.249Z,2.48
2018-11-29T06:29:31.219Z,2.43
2018-11-29T06:30:31.181Z,2.36
2018-11-29T06:31:31.148Z,2.47
2018-11-29T06:32:31.112Z,2.37
2018-11-29T06:33:31.078Z,2.47
2018-11-29T06:34:31.043Z,2.37
2018-11-29T06:35:31.009Z,2.41
2018-11-29T06:36:30.975Z,2.43
2018-11-29T06:37:30.949Z,2.36
2018-11-29T06:38:30.907Z,2.37
2018-11-29T06:39:30.871Z,2.38
2018-11-29T06:40:30.838Z,2.36
2018-11-29T06:41:30.806Z,2.33
2018-11-29T06:42:30.772Z,2.44
2018-11-29T06:43:30.735Z,2.37
2018-11-29T06:44:30.703Z,2.37
2018-11-29T06:45:30.666Z,2.44
2018-11-29T06:46:30.633Z,2.37
2018-11-29T06:47:30.600Z,2.40
2018-11-29T06:48:30.565Z,2.47
2018-11-29T06:49:30.529Z,2.41
2018-11-29T06:50:30.494Z,2.40
2018-11-29T06:51:30.461Z,2.36
2018-11-29T06:52:30.426Z,2.43
2018-11-29T06:53:30.394Z,2.41
2018-11-29T06:54:30.358Z,2.41
2018-11-29T06:55:30.323Z,2.47
2018-11-29T06:56:30.289Z,2.47
2018-11-29T06:57:30.257Z,2.40
2018-11-29T06:58:30.226Z,2.41
2018-11-29T06:59:30.188Z,2.41
2018-11-29T07:00:30.152Z,2.36
2018-11-29T07:01:30.118Z,2.45
2018-11-29T07:02:30.085Z,2.45
2018-11-29T07:03:30.055Z,2.44
2018-11-29T07:04:30.016Z,2.51
2018-11-29T07:05:29.986Z,2.53
2018-11-29T07:06:29.949Z,2.48
2018-11-29T07:07:29.912Z,2.61
2018-11-29T07:08:29.879Z,2.55
2018-11-29T07:09:29.849Z,2.45
2018-11-29T07:10:29.825Z,2.53
2018-11-29T07:11:29.778Z,2.53
2018-11-29T07:12:29.744Z,2.51
2018-11-29T07:13:29.708Z,2.56
2018-11-29T07:14:29.672Z,2.55
2018-11-29T07:15:29.641Z,2.56
2018-11-29T07:16:29.605Z,2.56
2018-11-29T07:17:29.573Z,2.50
2018-11-29T07:18:29.537Z,2.58
2018-11-29T07:19:29.504Z,2.53
2018-11-29T07:20:29.469Z,2.53
2018-11-29T07:21:29.433Z,2.61
2018-11-29T07:22:29.399Z,2.58
2018-11-29T07:23:29.366Z,2.56
2018-11-29T07:24:29.332Z,2.58
2018-11-29T07:25:29.301Z,2.61
2018-11-29T07:26:29.264Z,2.68
2018-11-29T07:27:29.228Z,2.66
2018-11-29T07:28:29.196Z,2.66
2018-11-29T07:29:29.163Z,2.68
2018-11-29T07:30:29.134Z,2.63
2018-11-29T07:31:29.095Z,2.61
2018-11-29T07:32:29.061Z,2.69
2018-11-29T07:33:29.026Z,2.66
2018-11-29T07:34:28.997Z,2.66
2018-11-29T07:35:28.958Z,2.68
2018-11-29T07:36:28.925Z,2.76
2018-11-29T07:37:28.888Z,2.76
2018-11-29T07:38:28.857Z,2.81
2018-11-29T07:39:28.824Z,2.81
2018-11-29T07:40:28.789Z,2.84
2018-11-29T07:41:28.765Z,2.80
2018-11-29T07:42:28.720Z,2.80
2018-11-29T07:43:28.688Z,2.81
2018-11-29T07:44:28.664Z,2.86
2018-11-29T07:45:28.619Z,2.92
2018-11-29T07:46:28.585Z,2.89
2018-11-29T07:47:28.550Z,2.95
2018-11-29T07:48:28.531Z,2.83
2018-11-29T07:49:28.484Z,2.83
2018-11-29T07:50:28.450Z,2.95
2018-11-29T07:51:28.419Z,2.90
2018-11-29T07:52:28.381Z,2.98
2018-11-29T07:53:28.346Z,2.89
2018-11-29T07:54:28.313Z,2.89
2018-11-29T07:55:28.279Z,2.90
2018-11-29T07:56:28.244Z,2.97
2018-11-29T07:57:28.212Z,2.90
2018-11-29T07:58:28.178Z,2.95
2018-11-29T07:59:28.143Z,2.92
2018-11-29T08:00:28.115Z,2.99
2018-11-29T08:01:28.077Z,2.92
2018-11-29T08:02:28.042Z,2.98
2018-11-29T08:03:28.008Z,2.92
2018-11-29T08:04:27.985Z,2.95
2018-11-29T08:05:27.941Z,2.99
2018-11-29T08:06:27.912Z,2.92
2018-11-29T08:07:27.872Z,2.92
2018-11-29T08:08:27.838Z,2.92
2018-11-29T08:09:27.806Z,3.01
2018-11-29T08:10:27.772Z,2.94
2018-11-29T08:11:27.737Z,2.99
2018-11-29T08:12:27.705Z,2.97
2018-11-29T08:13:27.673Z,2.98
2018-11-29T08:14:27.635Z,2.90
2018-11-29T08:15:27.603Z,3.01
2018-11-29T08:16:27.568Z,2.95
2018-11-29T08:17:27.536Z,2.98
2018-11-29T08:18:27.504Z,2.90
2018-11-29T08:19:27.468Z,2.92
2018-11-29T08:20:27.434Z,2.95
2018-11-29T08:21:27.399Z,3.02
2018-11-29T08:22:27.365Z,2.98
2018-11-29T08:23:27.337Z,2.98
2018-11-29T08:24:27.297Z,2.89
2018-11-29T08:25:27.265Z,2.90
2018-11-29T08:26:27.231Z,3.04
2018-11-29T08:27:27.197Z,3.01
2018-11-29T08:28:27.165Z,2.98
2018-11-29T08:29:27.135Z,2.99
2018-11-29T08:30:27.096Z,3.13
2018-11-29T08:31:27.069Z,3.10
2018-11-29T08:32:27.027Z,2.95
2018-11-29T08:33:26.998Z,3.15
2018-11-29T08:34:26.960Z,3.16
2018-11-29T08:35:26.933Z,2.99
2018-11-29T08:36:26.894Z,3.12
2018-11-29T08:37:26.863Z,3.04
2018-11-29T08:38:26.833Z,3.07
2018-11-29T08:39:26.792Z,3.08
2018-11-29T08:40:26.760Z,3.12
2018-11-29T08:41:26.725Z,3.05
2018-11-29T08:42:26.743Z,2.95
2018-11-29T08:43:26.878Z,3.10
2018-11-29T08:44:26.631Z,2.98
2018-11-29T08:45:26.595Z,2.97
2018-11-29T08:46:26.557Z,3.04
2018-11-29T08:47:26.533Z,3.07
2018-11-29T08:48:26.489Z,3.15
2018-11-29T08:49:26.460Z,2.92
2018-11-29T08:50:26.424Z,2.99
2018-11-29T08:51:26.390Z,2.92
2018-11-29T08:52:26.364Z,2.97
2018-11-29T08:53:26.323Z,3.08
2018-11-29T08:54:26.288Z,2.98
2018-11-29T08:55:26.256Z,2.87
2018-11-29T08:56:26.222Z,2.98
2018-11-29T08:57:26.190Z,2.97
2018-11-29T08:58:26.156Z,2.97
2018-11-29T08:59:26.121Z,2.98
2018-11-29T09:00:26.094Z,3.01
2018-11-29T09:01:26.058Z,3.01
2018-11-29T09:02:26.021Z,3.05
2018-11-29T09:03:25.989Z,2.99
2018-11-29T09:04:25.956Z,3.07
2018-11-29T09:05:25.923Z,3.01
2018-11-29T09:06:25.893Z,3.13
2018-11-29T09:07:25.896Z,3.12
2018-11-29T09:08:25.821Z,3.16
2018-11-29T09:09:25.791Z,3.08
2018-11-29T09:10:31.436Z,3.16
2018-11-29T09:11:25.724Z,3.12
2018-11-29T09:12:25.691Z,3.16
2018-11-29T09:13:25.658Z,3.07
2018-11-29T09:14:25.625Z,3.17
2018-11-29T09:15:25.592Z,3.19
2018-11-29T09:16:25.556Z,3.16
2018-11-29T09:17:25.531Z,3.05
2018-11-29T09:18:25.490Z,3.25
2018-11-29T09:19:25.463Z,3.23
2018-11-29T09:20:25.426Z,3.16
2018-11-29T09:21:25.390Z,3.28
2018-11-29T09:22:25.357Z,3.28
2018-11-29T09:23:25.335Z,3.20
2018-11-29T09:24:25.291Z,3.33
2018-11-29T09:25:25.261Z,3.37
2018-11-29T09:26:25.224Z,3.30
2018-11-29T09:27:25.192Z,3.31
2018-11-29T09:28:25.160Z,3.39
2018-11-29T09:29:25.127Z,3.34
2018-11-29T09:30:25.092Z,3.28
2018-11-29T09:31:25.061Z,3.30
2018-11-29T09:32:25.027Z,3.34
2018-11-29T09:33:24.996Z,3.53
2018-11-29T09:34:24.962Z,3.42
2018-11-29T09:35:24.927Z,3.64
2018-11-29T09:36:24.901Z,3.50
2018-11-29T09:37:24.863Z,3.50
2018-11-29T09:38:24.830Z,3.50
2018-11-29T09:39:24.799Z,3.45
2018-11-29T09:40:24.769Z,3.46
2018-11-29T09:41:24.734Z,3.60
2018-11-29T09:42:24.705Z,3.59
2018-11-29T09:43:24.675Z,3.62
2018-11-29T09:44:24.635Z,3.62
2018-11-29T09:45:24.606Z,3.57
2018-11-29T09:46:24.569Z,3.70
2018-11-29T09:47:24.540Z,3.71
2018-11-29T09:48:24.508Z,3.77
2018-11-29T09:49:24.476Z,3.62
2018-11-29T09:50:24.440Z,3.68
2018-11-29T09:51:24.406Z,3.68
2018-11-29T09:52:24.375Z,3.77
2018-11-29T09:53:24.342Z,3.77
2018-11-29T09:54:24.309Z,3.71
2018-11-29T09:55:24.276Z,3.67
2018-11-29T09:56:24.244Z,3.67
2018-11-29T09:57:24.213Z,3.72
2018-11-29T09:58:24.180Z,3.74
2018-11-29T09:59:24.147Z,3.80
2018-11-29T10:00:27.697Z,3.74
2018-11-29T10:01:24.082Z,3.88
2018-11-29T10:02:24.051Z,3.75
2018-11-29T10:03:24.017Z,3.75
2018-11-29T10:04:23.987Z,3.74
2018-11-29T10:05:23.953Z,3.75
2018-11-29T10:06:23.930Z,3.86
2018-11-29T10:07:23.895Z,3.84
2018-11-29T10:08:26.222Z,3.78
2018-11-29T10:09:23.903Z,3.75
2018-11-29T10:10:23.788Z,3.75
2018-11-29T10:11:24.120Z,3.90
2018-11-29T10:12:23.726Z,3.84
2018-11-29T10:13:23.693Z,3.88
2018-11-29T10:14:23.673Z,3.88
2018-11-29T10:15:23.628Z,3.78
2018-11-29T10:16:23.595Z,3.72
2018-11-29T10:17:23.563Z,3.74
2018-11-29T10:18:23.530Z,3.75
2018-11-29T10:19:23.497Z,3.77
2018-11-29T10:20:23.469Z,3.72
2018-11-29T10:21:23.432Z,3.81
2018-11-29T10:22:23.399Z,3.75
2018-11-29T10:23:23.367Z,3.78
2018-11-29T10:24:23.334Z,3.78
2018-11-29T10:25:23.302Z,3.89
2018-11-29T10:26:23.269Z,3.92
2018-11-29T10:27:23.237Z,3.88
2018-11-29T10:28:23.204Z,3.90
2018-11-29T10:29:23.175Z,3.84
2018-11-29T10:30:23.162Z,3.92
2018-11-29T10:31:23.122Z,3.99
2018-11-29T10:32:23.073Z,3.93
2018-11-29T10:33:23.042Z,4.00
2018-11-29T10:34:23.009Z,3.84
2018-11-29T10:35:22.973Z,3.92
2018-11-29T10:36:22.942Z,3.93
2018-11-29T10:37:22.909Z,3.98
2018-11-29T10:38:22.879Z,3.88
2018-11-29T10:39:22.846Z,3.95
2018-11-29T10:40:22.998Z,3.96
2018-11-29T10:41:22.782Z,3.90
2018-11-29T10:42:22.746Z,3.95
2018-11-29T10:43:22.738Z,4.02
2018-11-29T10:44:22.701Z,3.98
2018-11-29T10:45:22.648Z,3.92
2018-11-29T10:46:22.618Z,3.93
2018-11-29T10:47:22.584Z,4.04
2018-11-29T10:48:22.563Z,3.92
2018-11-29T10:49:22.518Z,3.96
2018-11-29T10:50:22.487Z,4.04
2018-11-29T10:51:23.206Z,3.98
2018-11-29T10:52:22.421Z,4.04
2018-11-29T10:53:22.389Z,3.99
2018-11-29T10:54:22.355Z,4.00
2018-11-29T10:55:22.327Z,4.08
2018-11-29T10:56:22.355Z,4.08
2018-11-29T10:57:22.265Z,4.11
2018-11-29T10:58:22.274Z,4.08
2018-11-29T10:59:22.194Z,4.11
2018-11-29T11:00:22.162Z,4.02
2018-11-29T11:01:22.128Z,4.04
2018-11-29T11:02:22.095Z,4.02
2018-11-29T11:03:22.063Z,4.07
2018-11-29T11:04:22.032Z,4.08
2018-11-29T11:05:22.044Z,4.16
2018-11-29T11:06:21.966Z,4.07
2018-11-29T11:07:21.933Z,4.11
2018-11-29T11:08:21.902Z,4.11
2018-11-29T11:09:21.868Z,4.14
2018-11-29T11:10:21.836Z,4.06
2018-11-29T11:11:21.804Z,4.13
2018-11-29T11:12:21.772Z,4.08
2018-11-29T11:13:21.740Z,4.21
2018-11-29T11:14:21.707Z,4.25
2018-11-29T11:15:21.682Z,4.21
2018-11-29T11:16:21.643Z,4.24
2018-11-29T11:17:21.610Z,4.16
2018-11-29T11:18:21.576Z,4.26
2018-11-29T11:19:21.549Z,4.34
2018-11-29T11:20:21.513Z,4.28
2018-11-29T11:21:21.480Z,4.34
2018-11-29T11:22:21.447Z,4.32
2018-11-29T11:23:21.415Z,4.25
2018-11-29T11:24:21.384Z,4.39
2018-11-29T11:25:21.352Z,4.43
2018-11-29T11:26:21.322Z,4.44
2018-11-29T11:27:21.286Z,4.42
2018-11-29T11:28:21.255Z,4.43
2018-11-29T11:29:21.224Z,4.39
2018-11-29T11:30:21.280Z,4.44
2018-11-29T11:31:21.224Z,4.43
2018-11-29T11:32:21.125Z,4.43
2018-11-29T11:33:21.099Z,4.51
2018-11-29T11:34:21.082Z,4.42
2018-11-29T11:35:21.029Z,4.32
2018-11-29T11:36:21.015Z,4.42
2018-11-29T11:37:20.965Z,4.43
2018-11-29T11:38:20.932Z,4.46
2018-11-29T11:39:20.903Z,4.39
2018-11-29T11:40:20.870Z,4.47
2018-11-29T11:41:20.841Z,4.28
2018-11-29T11:42:20.806Z,4.31
2018-11-29T11:43:20.777Z,4.44
2018-11-29T11:44:20.741Z,4.35
2018-11-29T11:45:20.712Z,4.32
2018-11-29T11:46:20.676Z,4.34
2018-11-29T11:47:20.649Z,4.31
2018-11-29T11:48:20.613Z,4.35
2018-11-29T11:49:20.581Z,4.21
2018-11-29T11:50:20.550Z,4.31
2018-11-29T11:51:20.518Z,4.42
2018-11-29T11:52:20.489Z,4.25
2018-11-29T11:53:20.455Z,4.36
2018-11-29T11:54:20.419Z,4.35
2018-11-29T11:55:20.388Z,4.29
2018-11-29T11:56:20.355Z,4.31
2018-11-29T11:57:20.323Z,4.25
2018-11-29T11:58:20.291Z,4.31
2018-11-29T11:59:20.264Z,4.34
2018-11-29T12:00:20.230Z,4.43
2018-11-29T12:01:20.206Z,4.31
2018-11-29T12:02:20.161Z,4.31
2018-11-29T12:03:20.130Z,4.44
2018-11-29T12:04:20.099Z,4.39
2018-11-29T12:05:20.067Z,4.29
2018-11-29T12:06:20.032Z,4.35
2018-11-29T12:07:20.011Z,4.42
2018-11-29T12:08:19.968Z,4.46
2018-11-29T12:09:19.934Z,4.50
2018-11-29T12:10:19.901Z,4.39
2018-11-29T12:11:19.871Z,4.42
2018-11-29T12:12:19.838Z,4.47
2018-11-29T12:13:19.823Z,4.43
2018-11-29T12:14:19.772Z,4.54
2018-11-29T12:15:19.739Z,4.57
2018-11-29T12:16:19.710Z,4.46
2018-11-29T12:17:19.674Z,4.50
2018-11-29T12:18:19.641Z,4.50
2018-11-29T12:19:19.610Z,4.44
2018-11-29T12:20:19.584Z,4.50
2018-11-29T12:21:19.547Z,4.49
2018-11-29T12:22:19.512Z,4.57
2018-11-29T12:23:19.481Z,4.49
2018-11-29T12:24:19.448Z,4.51
2018-11-29T12:25:19.415Z,4.59
2018-11-29T12:26:19.385Z,4.59
2018-11-29T12:27:19.354Z,4.57
2018-11-29T12:28:19.318Z,4.61
2018-11-29T12:29:19.290Z,4.56
2018-11-29T12:30:19.251Z,4.56
2018-11-29T12:31:19.221Z,4.57
2018-11-29T12:32:19.187Z,4.54
2018-11-29T12:33:19.157Z,4.54
2018-11-29T12:34:19.123Z,4.54
2018-11-29T12:35:19.109Z,4.54
2018-11-29T12:36:19.062Z,4.62
2018-11-29T12:37:19.026Z,4.64
2018-11-29T12:38:18.998Z,4.64
2018-11-29T12:39:18.961Z,4.62
2018-11-29T12:40:18.928Z,4.59
2018-11-29T12:41:18.897Z,4.59
2018-11-29T12:42:18.863Z,4.65
2018-11-29T12:43:18.830Z,4.59
2018-11-29T12:44:18.806Z,4.54
2018-11-29T12:45:18.772Z,4.59
2018-11-29T12:46:18.733Z,4.54
2018-11-29T12:47:18.702Z,4.56
2018-11-29T12:48:18.673Z,4.62
2018-11-29T12:49:18.637Z,4.59
2018-11-29T12:50:18.605Z,4.59
2018-11-29T12:51:18.571Z,4.59
2018-11-29T12:52:18.545Z,4.64
2018-11-29T12:53:18.532Z,4.65
2018-11-29T12:54:18.480Z,4.67
2018-11-29T12:55:18.443Z,4.69
2018-11-29T12:56:18.412Z,4.75
2018-11-29T12:57:18.381Z,4.80
2018-11-29T12:58:18.346Z,4.74
2018-11-29T12:59:18.315Z,4.84
2018-11-29T13:00:18.281Z,4.88
2018-11-29T13:01:18.248Z,4.91
2018-11-29T13:02:18.233Z,4.80
2018-11-29T13:03:18.185Z,4.91
2018-11-29T13:04:18.151Z,4.86
2018-11-29T13:05:18.122Z,4.91
2018-11-29T13:06:18.087Z,4.87
2018-11-29T13:07:18.053Z,4.88
2018-11-29T13:08:18.024Z,4.91
2018-11-29T13:09:17.990Z,4.94
2018-11-29T13:10:17.958Z,4.88
2018-11-29T13:11:17.926Z,4.94
2018-11-29T13:12:17.895Z,4.90
2018-11-29T13:13:17.866Z,4.87
2018-11-29T13:14:17.927Z,4.94
2018-11-29T13:15:18.018Z,4.87
2018-11-29T13:16:17.764Z,4.94
2018-11-29T13:17:17.732Z,4.94
2018-11-29T13:18:17.699Z,4.91